Latest Weather Observations for Mount Bundey North (Defence)

IDD60801

Issued at 4:31 pm CST Thursday 23 November 2017 (issued every 30 minutes, with the page automatically refreshed every 10 minutes)

About weather observations | Map of weather stations | Latest weather observations for NT | Other Formats
Station Details ID: 014983 Name: MOUNT BUNDEY NORTH (DEFENCE) Lat: -12.91 Lon: 131.87 Height: 83.0 m
Data from the previous 72 hours. | See also: Recent months at Mount Bundey North (Defence)
Date/Time
CST
Temp
°C
App
Temp
°C
Dew
Point
°C
Rel
Hum
%
Delta-T
°C
Wind Press
QNH
hPa
Press
MSL
hPa
Rain since
9am
mm
Dir  Spd
km/h
Gust
km/h
Spd
kts
Gust
kts
23/04:30pm 33.1 37.0 21.9 51 7.6 NE 4 7 2 4 - - 0.0
23/04:00pm 33.0 36.7 21.5 50 7.8 ENE 4 9 2 5 - - 0.0
23/03:30pm 33.3 37.2 21.8 51 7.8 NNE 4 9 2 5 - - 0.0
23/03:00pm 33.8 38.3 22.9 53 7.5 E 4 6 2 3 - - 0.0
23/02:30pm 33.1 36.3 21.6 51 7.8 NE 7 13 4 7 - - 0.0
23/02:00pm 33.0 37.1 23.0 55 6.9 NNE 6 13 3 7 - - 0.0
23/01:30pm 32.1 35.6 22.2 56 6.8 NE 7 15 4 8 - - 0.0
23/01:00pm 33.1 37.0 22.5 53 7.3 NE 6 9 3 5 - - 0.0
23/12:30pm 32.5 36.2 22.6 56 6.8 NNE 7 13 4 7 - - 0.0
23/12:00pm 31.5 35.0 21.9 56 6.5 NNE 6 13 3 7 - - 0.0
23/11:30am 31.0 35.1 22.9 62 5.6 ENE 6 13 3 7 - - 0.0
23/11:00am 31.4 36.0 23.8 64 5.3 NNE 6 11 3 6 - - 0.0
23/10:30am 30.4 34.4 23.1 65 5.0 NE 7 13 4 7 - - 0.0
23/10:00am 29.8 34.1 23.7 70 4.2 N 7 11 4 6 - - 0.0
23/09:30am 29.4 33.9 23.6 71 4.0 E 6 7 3 4 - - 0.0
23/09:00am 28.2 32.7 22.9 73 3.6 ENE 4 6 2 3 - - 0.2
23/08:30am 26.8 31.1 22.6 78 2.8 NNE 4 6 2 3 - - 0.2
23/08:00am 25.9 30.9 23.2 85 1.8 E 2 4 1 2 - - 0.2
23/07:30am 25.0 30.3 23.1 89 1.3 CALM 0 2 0 1 - - 0.2
23/07:00am 24.6 29.1 23.0 91 1.1 SE 4 6 2 3 - - 0.2
23/06:30am 24.1 28.7 23.1 94 0.7 S 4 9 2 5 - - 0.2
23/06:00am 23.8 28.4 23.1 96 0.5 SSE 4 6 2 3 - - 0.2
23/05:30am 23.7 27.8 23.0 96 0.5 S 6 7 3 4 - - 0.2
23/05:00am 23.9 28.0 23.2 96 0.5 SE 7 11 4 6 - - 0.2
23/04:30am 23.8 28.7 23.1 96 0.5 SW 2 6 1 3 - - 0.2
23/04:00am 23.7 27.6 22.9 95 0.5 W 7 11 4 6 - - 0.2
23/03:30am 23.7 28.2 23.0 96 0.5 WNW 4 6 2 3 - - 0.2
23/03:00am 23.9 28.5 23.2 96 0.5 WSW 4 6 2 3 - - 0.2
23/02:30am 23.8 28.7 23.1 96 0.5 NW 2 6 1 3 - - 0.2
23/02:00am 23.9 29.1 22.9 94 0.7 CALM 0 0 0 0 - - 0.2
23/01:30am 24.3 28.5 23.1 93 0.8 SE 6 9 3 5 - - 0.2
23/01:00am 24.3 27.3 22.7 91 1.1 ESE 11 15 6 8 - - 0.2
23/12:30am 24.6 28.2 23.0 91 1.1 ESE 9 13 5 7 - - 0.2
23/12:00am 24.8 29.3 23.0 90 1.2 ESE 4 9 2 5 - - 0.2
 
Date/Time
CST
Temp
°C
App
Temp
°C
Dew
Point
°C
Rel
Hum
%
Delta-T
°C
Wind Press
QNH
hPa
Press
MSL
hPa
Rain since
9am
mm
Dir  Spd
km/h
Gust
km/h
Spd
kts
Gust
kts
22/11:30pm 24.8 29.3 22.9 89 1.3 E 4 7 2 4 - - 0.2
22/11:00pm 24.9 29.0 23.0 89 1.3 SE 6 9 3 5 - - 0.2
22/10:30pm 24.6 29.5 23.0 91 1.1 NNE 2 6 1 3 - - 0.2
22/10:00pm 24.6 29.5 23.0 91 1.1 NE 2 4 1 2 - - 0.2
22/09:30pm 24.6 29.0 22.8 90 1.2 NNE 4 9 2 5 - - 0.2
22/09:00pm 24.6 28.6 22.8 90 1.2 NE 6 9 3 5 - - 0.2
22/08:30pm 24.6 28.1 22.8 90 1.2 NNE 9 17 5 9 - - 0.2
22/08:00pm 25.3 29.1 22.8 86 1.7 NE 7 15 4 8 - - 0.2
22/07:30pm 25.8 29.6 22.7 83 2.1 ENE 7 15 4 8 - - 0.2
22/07:00pm 25.9 30.3 23.4 86 1.7 ENE 6 13 3 7 - - 0.2
22/06:30pm 25.9 30.8 24.3 91 1.1 NE 6 7 3 4 - - 0.2
22/06:00pm 26.0 31.2 24.2 90 1.2 N 4 7 2 4 - - 0.2
22/05:30pm 26.0 30.3 23.3 85 1.8 NW 6 9 3 5 - - 0.2
22/05:00pm 26.1 30.9 24.1 89 1.4 NW 6 11 3 6 - - 0.0
22/04:30pm 26.3 31.7 23.8 86 1.7 N 2 9 1 5 - - 0.0
22/04:00pm 26.4 29.6 23.1 82 2.2 W 11 20 6 11 - - 0.0
22/03:30pm 27.3 31.4 23.3 79 2.7 WSW 7 17 4 9 - - 0.0
22/03:00pm 28.7 29.9 22.2 68 4.4 WSW 19 37 10 20 - - 0.0
22/02:30pm 32.9 37.1 23.2 56 6.7 NW 6 13 3 7 - - 0.0
22/02:00pm 33.5 37.2 22.3 52 7.7 NE 6 19 3 10 - - 0.0
22/01:30pm 33.6 37.0 21.7 49 8.1 NNE 6 11 3 6 - - 0.0
22/01:00pm 33.0 36.5 22.1 52 7.5 NNE 7 15 4 8 - - 0.0
22/12:30pm 32.5 36.5 22.0 54 7.2 NNE 4 9 2 5 - - 0.0
22/12:00pm 32.0 36.6 22.4 57 6.6 SW 2 6 1 3 - - 0.0
22/11:30am 32.4 37.0 23.1 58 6.4 NNE 4 7 2 4 - - 0.0
22/11:00am 31.1 35.6 23.0 62 5.6 ENE 4 7 2 4 - - 0.0
22/10:30am 30.1 35.3 23.5 67 4.6 NNE 2 6 1 3 - - 0.0
22/10:00am 29.8 34.5 24.0 71 4.0 NE 6 9 3 5 - - 0.0
22/09:30am 28.9 33.7 24.2 76 3.3 NE 6 9 3 5 - - 0.0
22/09:00am 28.2 33.7 24.6 81 2.5 NE 4 7 2 4 - - 0.0
22/08:30am 27.6 32.9 24.4 83 2.2 NNE 4 9 2 5 - - 0.0
22/08:00am 27.4 32.8 24.5 84 2.0 NE 4 7 2 4 - - 0.0
22/07:30am 27.2 32.5 24.3 84 2.0 NE 4 6 2 3 - - 0.0
22/07:00am 27.1 31.9 24.2 84 2.0 NNE 6 9 3 5 - - 0.0
22/06:30am 26.7 31.8 24.0 85 1.9 NNE 4 7 2 4 - - 0.0
22/06:00am 26.6 32.1 24.1 86 1.7 NNE 2 6 1 3 - - 0.0
22/05:30am 26.5 32.5 24.3 88 1.5 CALM 0 0 0 0 - - 0.0
22/05:00am 26.4 32.2 23.9 86 1.7 CALM 0 0 0 0 - - 0.0
22/04:30am 26.3 32.1 24.0 87 1.6 CALM 0 0 0 0 - - 0.0
22/04:00am 26.3 32.3 24.3 89 1.4 CALM 0 0 0 0 - - 0.0
22/03:30am 26.5 31.7 24.2 87 1.6 ESE 4 7 2 4 - - 0.0
22/03:00am 26.6 32.3 23.7 84 2.0 CALM 0 2 0 1 - - 0.0
22/02:30am 26.9 32.0 24.0 84 2.0 SSE 4 6 2 3 - - 0.0
22/02:00am 26.9 32.3 23.8 83 2.1 S 2 6 1 3 - - 0.0
22/01:30am 27.0 32.7 23.7 82 2.3 CALM 0 0 0 0 - - 0.0
22/01:00am 27.2 32.7 23.4 80 2.6 CALM 0 0 0 0 - - 0.0
22/12:30am 27.5 32.4 23.1 77 3.0 SW 2 2 1 1 - - 0.0
22/12:00am 27.7 32.8 22.6 74 3.5 CALM 0 0 0 0 - - 0.0
 
Date/Time
CST
Temp
°C
App
Temp
°C
Dew
Point
°C
Rel
Hum
%
Delta-T
°C
Wind Press
QNH
hPa
Press
MSL
hPa
Rain since
9am
mm
Dir  Spd
km/h
Gust
km/h
Spd
kts
Gust
kts
21/11:30pm 27.7 32.6 22.4 73 3.6 CALM 0 0 0 0 - - 0.0
21/11:00pm 27.9 32.0 22.2 71 3.9 SW 4 7 2 4 - - 0.0
21/10:30pm 28.3 32.4 22.3 70 4.1 WSW 4 7 2 4 - - 0.0
21/10:00pm 28.6 32.9 22.6 70 4.1 WSW 4 9 2 5 - - 0.0
21/09:30pm 28.9 33.6 24.0 75 3.4 W 6 7 3 4 - - 0.0
21/09:00pm 29.2 34.0 24.1 74 3.5 W 6 11 3 6 - - 0.0
21/08:30pm 29.6 33.7 24.0 72 3.9 W 9 19 5 10 - - 0.0
21/08:00pm 30.5 34.4 22.9 64 5.2 WNW 7 9 4 5 - - 0.0
21/07:30pm 30.9 34.8 22.5 61 5.7 NW 6 11 3 6 - - 0.0
21/07:00pm 31.4 35.2 22.4 59 6.2 NW 6 11 3 6 - - 0.0
21/06:30pm 31.8 37.0 23.6 62 5.7 WNW 2 4 1 2 - - 0.0
21/06:00pm 32.8 37.6 22.9 56 6.8 NW 2 2 1 1 - - 0.0
21/05:30pm 33.1 37.6 21.6 51 7.8 CALM 0 2 0 1 - - 0.0
21/05:00pm 33.4 37.0 21.2 48 8.3 NE 4 6 2 3 - - 0.0
21/04:30pm 33.8 37.0 19.8 43 9.3 NNE 2 4 1 2 - - 0.0
21/04:00pm 34.1 36.4 18.6 40 10.1 NNE 4 7 2 4 - - 0.0
21/03:30pm 34.3 36.5 18.3 38 10.4 NNW 4 7 2 4 - - 0.0
21/03:00pm 34.6 37.8 20.6 44 9.4 NNW 4 7 2 4 - - 0.0
21/02:30pm 34.5 37.1 20.1 43 9.6 NNE 6 11 3 6 - - 0.0
21/02:00pm 34.3 37.2 19.9 42 9.6 NNW 4 13 2 7 - - 0.0
21/01:30pm 33.9 37.7 21.7 49 8.3 NE 4 11 2 6 - - 0.0
21/01:00pm 33.5 36.6 21.0 48 8.4 NE 6 13 3 7 - - 0.0
21/12:30pm 33.1 37.0 22.5 53 7.3 ENE 6 11 3 6 - - 0.0
21/12:00pm 32.4 36.8 22.8 57 6.6 NE 4 7 2 4 - - 0.0
21/11:30am 32.0 36.3 23.3 60 6.0 E 6 7 3 4 - - 0.0
21/11:00am 32.0 36.3 23.3 60 6.0 NNE 6 9 3 5 - - 0.0
21/10:30am 31.9 37.2 23.7 62 5.7 NE 2 6 1 3 - - 0.0
21/10:00am 30.9 35.3 22.8 62 5.6 NNE 4 9 2 5 - - 0.0
21/09:30am 30.0 35.1 23.4 67 4.6 NW 2 4 1 2 - - 0.0
21/09:00am 29.9 35.7 24.5 73 3.8 NNE 2 6 1 3 - - 0.0
21/08:30am 29.1 35.0 24.7 77 3.1 ENE 2 6 1 3 - - 0.0
21/08:00am 28.1 34.7 25.3 85 2.0 CALM 0 0 0 0 - - 0.0
21/07:30am 27.3 33.9 25.3 89 1.4 CALM 0 0 0 0 - - 0.0
21/07:00am 26.5 33.3 25.6 95 0.6 CALM 0 0 0 0 - - 0.0
21/06:30am 25.8 32.3 25.1 96 0.5 CALM 0 0 0 0 - - 0.0
21/06:00am 25.8 32.2 24.9 95 0.6 CALM 0 0 0 0 - - 0.0
21/05:30am 26.0 32.3 24.8 93 0.8 CALM 0 0 0 0 - - 0.0
21/05:00am 26.3 32.7 24.9 92 1.0 CALM 0 0 0 0 - - 0.0
21/04:30am 26.5 32.9 24.9 91 1.1 CALM 0 0 0 0 - - 0.0
21/04:00am 26.6 32.9 24.8 90 1.3 CALM 0 0 0 0 - - 0.0
21/03:30am 26.8 32.8 24.8 89 1.4 NW 2 4 1 2 - - 0.0
21/03:00am 26.9 33.4 25.1 90 1.3 CALM 0 2 0 1 - - 0.0
21/02:30am 27.1 33.2 25.1 89 1.4 NNW 2 6 1 3 - - 0.0
21/02:00am 27.1 33.1 24.9 88 1.5 NW 2 6 1 3 - - 0.0
21/01:30am 27.1 32.7 24.9 88 1.5 NW 4 6 2 3 - - 0.0
21/01:00am 27.1 33.0 24.7 87 1.7 NNW 2 6 1 3 - - 0.0
21/12:30am 27.4 32.8 24.5 84 2.0 NNW 4 6 2 3 - - 0.0
21/12:00am 27.6 32.9 24.4 83 2.2 NNW 4 7 2 4 - - 0.0
 
Date/Time
CST
Temp
°C
App
Temp
°C
Dew
Point
°C
Rel
Hum
%
Delta-T
°C
Wind Press
QNH
hPa
Press
MSL
hPa
Rain since
9am
mm
Dir  Spd
km/h
Gust
km/h
Spd
kts
Gust
kts
20/11:30pm 27.9 32.9 23.9 79 2.8 NNW 4 9 2 5 - - 0.0
20/11:00pm 28.1 33.0 23.7 77 3.0 NNW 4 9 2 5 - - 0.0
20/10:30pm 28.3 32.8 23.7 76 3.2 NNW 6 9 3 5 - - 0.0
20/10:00pm 28.5 33.2 23.4 74 3.5 NNW 4 7 2 4 - - 0.0
20/09:30pm 28.8 33.4 23.2 71 3.8 NNW 4 6 2 3 - - 0.0
20/09:00pm 29.3 33.8 23.0 69 4.3 NNW 4 6 2 3 - - 0.0
20/08:30pm 29.7 34.4 23.4 69 4.3 NNW 4 9 2 5 - - 0.0
20/08:00pm 30.2 34.3 22.9 65 5.0 NNW 6 9 3 5 - - 0.0
20/07:30pm 31.1 34.7 21.3 56 6.6 NNE 4 6 2 3 - - 0.0
20/07:00pm 31.7 35.5 20.9 52 7.2 NE 2 4 1 2 - - 0.0
20/06:30pm 32.4 36.2 21.6 53 7.3 NNE 4 6 2 3 - - 0.0
20/06:00pm 33.3 37.2 21.8 51 7.8 NNE 4 7 2 4 - - 0.0
20/05:30pm 33.6 36.8 21.7 49 8.1 ENE 7 15 4 8 - - 0.0
20/05:00pm 34.2 37.9 22.3 50 8.2 ENE 6 13 3 7 - - 0.0

Other Formats:

Comma delimited format used in spreadsheet applications
http://www.bom.gov.au/fwo/IDD60801/IDD60801.94162.axf

JavaScript Object Notation format (JSON) in row-major order
http://www.bom.gov.au/fwo/IDD60801/IDD60801.94162.json